Bookmark and Share
Track history (hours):
 

Ischia Jet

Last reported at 2014-Apr-15 15:33 UTC. Time now 2014-Apr-16 10:39 UTC.
Position N 40°34' E 014°17'.

Length 42 m; draft 1.2 m.

Type: Passenger vessel. MMSI: 247048700.

NotesDate/timePositionNaut miles runAvg speedWind from/ knotsBaromVisibWave heightAir tempDewpointWater temp
2014-Apr-15 15:33N 40°34' E 014°17'6 5.9
2014-Apr-15 14:33N 40°38' E 014°22'4 2.1
2014-Apr-15 12:32N 40°36' E 014°17'9 4.5
2014-Apr-15 10:34N 40°45' E 014°17'12 5.6
2014-Apr-15 08:30N 40°34' E 014°14'8 0.4
2014-Apr-14 13:31N 40°38' E 014°23'8 1.9
2014-Apr-14 09:31N 40°33' E 014°14'0 0.0
2014-Apr-14 07:31N 40°33' E 014°14'2 0.2
2014-Apr-13 15:24N 40°34' E 014°18'2 2.6
2014-Apr-13 14:33N 40°33' E 014°15'0 0.2
2014-Apr-13 13:31N 40°33' E 014°14'0 0.0
2014-Apr-13 12:31N 40°33' E 014°14'0 0.0
2014-Apr-13 11:31N 40°33' E 014°14'7 6.9
2014-Apr-13 10:33N 40°40' E 014°15'8 6.1
2014-Apr-13 09:15N 40°48' E 014°17'1515.4
2014-Apr-13 08:18N 40°33' E 014°14'1 0.0
2014-Apr-12 15:21N 40°34' E 014°15'7 8.6
2014-Apr-12 14:32N 40°38' E 014°23'7 6.1
2014-Apr-12 13:22N 40°35' E 014°14'1 0.8
2014-Apr-12 12:31N 40°34' E 014°14'1 0.6
2014-Apr-12 11:34N 40°34' E 014°15'15 6.5
2014-Apr-12 09:17N 40°49' E 014°17'18 4.4
2014-Apr-12 05:16N 40°36' E 014°32'1317.3
2014-Apr-12 04:31N 40°42' E 014°18'7 0.3
2014-Apr-11 09:23N 40°49' E 014°17'1618.6
2014-Apr-11 08:32N 40°33' E 014°15'16 0.9
2014-Apr-10 14:12N 40°49' E 014°17'1422.5
2014-Apr-10 13:33N 40°35' E 014°15'7 5.7
2014-Apr-10 12:24N 40°38' E 014°23'7 8.4
2014-Apr-10 11:33N 40°34' E 014°15'1410.7
2014-Apr-10 10:15N 40°48' E 014°17'1420.4
2014-Apr-10 09:33N 40°33' E 014°14'0 0.3
2014-Apr-10 08:32N 40°34' E 014°15'16 0.7
2014-Apr-09 10:33N 40°50' E 014°17'8 7.5
2014-Apr-09 09:32N 40°42' E 014°17'5 2.6
2014-Apr-09 07:29N 40°47' E 014°17'  

Dump ship's entire track history

sailing weather and tide predictions

Ischia Jet — IOBI — position and weather